• Join FlightAware (Why Join?)
  • Login
  • US Flag 
11:20AM EST


 

Airport Tracker/Info


-or-


 

Live Flight TrackerFlight Track Log ✈ THY2463 ✈ 15-Oct-2013 ✈ LTAF / ADA - LTBA / IST

Flight Track Log - Related Links

Times and Time Zones

All times are in EDT time to prevent confusion due to time zone crossing. See the THY2463 flight status page for this flight to view local times or setup timezone preferences in your user account.

Time Position Orientation Groundspeed Altitude Reporting Facility
EDT Latitude Longitude Course Direction KTS MPH feet Rate Location/Type
09:33AM 37.3860 34.6832 311° West  Level Estimated
09:34AM 37.4435 34.5973 310° West  Level Estimated
09:35AM 37.5009 34.5113 310° West  Level Estimated
09:36AM 37.5582 34.4252 310° West  Level Estimated
09:37AM 37.6154 34.3390 310° West  Level Estimated
09:38AM 37.6726 34.2526 310° West  Level Estimated
09:39AM 37.7298 34.1661 310° West  Level Estimated
09:40AM 37.7868 34.0795 310° West  Level Estimated
09:41AM 37.8438 33.9927 310° West  Level Estimated
09:42AM 37.9008 33.9058 310° West  Level Estimated
09:43AM 37.9577 33.8188 310° West  Level Estimated
09:44AM 38.0145 33.7316 310° West  Level Estimated
09:45AM 38.0712 33.6443 310° West  Level Estimated
09:46AM 38.1279 33.5568 310° West  Level Estimated
09:47AM 38.1845 33.4692 309° West  Level Estimated
09:48AM 38.2411 33.3815 309° West  Level Estimated
09:49AM 38.2976 33.2937 309° West  Level Estimated
09:50AM 38.3540 33.2057 309° West  Level Estimated
09:51AM 38.4104 33.1176 309° West  Level Estimated
09:52AM 38.4666 33.0293 309° West  Level Estimated
09:53AM 38.5229 32.9409 309° West  Level Estimated
09:54AM 38.5790 32.8523 309° West  Level Estimated
09:55AM 38.6351 32.7637 309° West  Level Estimated
09:56AM 38.6912 32.6749 309° West  Level Estimated
09:57AM 38.7471 32.5859 309° West  Level Estimated
09:58AM 38.8030 32.4968 309° West  Level Estimated
09:59AM 38.8588 32.4076 309° West  Level Estimated
10:00AM 38.9146 32.3182 309° West  Level Estimated
10:01AM 38.9703 32.2286 309° West  Level Estimated
10:02AM 39.0259 32.1390 309° West  Level Estimated
10:03AM 39.0815 32.0492 309° West  Level Estimated
10:04AM 39.1369 31.9592 309° West  Level Estimated
10:05AM 39.1923 31.8692 308° West  Level Estimated
10:06AM 39.2477 31.7789 308° West  Level Estimated
10:07AM 39.3030 31.6886 308° West  Level Estimated
10:08AM 39.3582 31.5981 308° West  Level Estimated
10:09AM 39.4133 31.5074 308° West  Level Estimated
10:10AM 39.4683 31.4166 308° West  Level Estimated
10:11AM 39.5233 31.3257 308° West  Level Estimated
10:12AM 39.5783 31.2346 308° West  Level Estimated
10:13AM 39.6331 31.1434 308° West  Level Estimated
10:14AM 39.6879 31.0520 308° West  Level Estimated
10:15AM 39.7426 30.9605 308° West  Level Estimated
10:16AM 39.7972 30.8688 308° West  Level Estimated
10:17AM 39.8518 30.7770 308° West  Level Estimated
10:18AM 39.9063 30.6850 308° West  Level Estimated
10:19AM 39.9607 30.5929 308° West  Level Estimated
10:20AM 40.0150 30.5007 308° West  Level Estimated
10:21AM 40.0693 30.4083 308° West  Level Estimated
10:22AM 40.1235 30.3158 307° West  Level Estimated
10:23AM 40.1776 30.2231 307° West  Level Estimated
10:24AM 40.2317 30.1302 307° West  Level Estimated
10:25AM 40.2856 30.0372 307° West  Level Estimated
10:26AM 40.3395 29.9441 307° West  Level Estimated
10:27AM 40.3934 29.8508 307° West  Level Estimated
10:28AM 40.4471 29.7574 307° West  Level Estimated
10:29AM 40.5008 29.6638 307° West  Level Estimated
10:30AM 40.5544 29.5701 307° West  Level Estimated
10:31AM 40.6079 29.4762 307° West  Level Estimated
10:32AM 40.6614 29.3822 307° West  Level Estimated
10:33AM 40.7147 29.2880 307° West  Level Estimated
10:34AM 40.7680 29.1936 307° West  Level Estimated
10:35AM 40.8212 29.0992 307° West  Level Estimated
10:36AM 40.8744 29.0045 307° West  Level Estimated
10:37AM 40.9274 28.9097 307° West  Level Estimated
10:38AM 40.9769 28.8211 306° West  Level Estimated
10:39AM 40.9769 28.8211 21° North  Level Estimated
10:40AM 40.9769 28.8211 21° North  Level Estimated
10:41AM 40.9769 28.8211 21° North  Level Estimated
10:42AM 40.9769 28.8211 21° North  Level Estimated
10:43AM 40.9769 28.8211 21° North  Level Estimated
10:44AM 40.9769 28.8211 21° North  Level Estimated
10:45AM 40.9769 28.8211 21° North  Level Estimated
10:46AM 40.9769 28.8211 21° North  Level Estimated
10:47AM 40.9769 28.8211 21° North  Level Estimated
10:48AM 40.9769 28.8211 21° North  Level Estimated
10:49AM 40.9769 28.8211 21° North  Level Estimated
10:50AM 40.9769 28.8211 21° North  Level Estimated
10:51AM 40.9769 28.8211 21° North  Level Estimated
10:52AM 40.9769 28.8211 21° North  Level Estimated
10:53AM 40.9769 28.8211 21° North  Level Estimated
10:54AM 40.9769 28.8211 21° North  Level Estimated